Time;durP1;ratioP1;P1;durP2;ratioP2;P2;SDS_P1;SDS_P2;PMS_P1;PMS_P2;Temp;Humidity;BMP_temperature;BMP_pressure;BME280_temperature;BME280_humidity;BME280_pressure;Samples;Min_cycle;Max_cycle;Signal;HPM_P1;HPM_P2
2023/01/04 00:01:38;;;;;;;;;;;8.00;99.90;;;;;;4990078;28;20287;-81
2023/01/04 00:04:04;;;;;;;;;;;8.00;99.90;;;;;;4990166;28;19925;-81
2023/01/04 00:06:29;;;;;;;;;;;8.00;99.90;;;;;;4967030;28;19926;-81
2023/01/04 00:08:55;;;;;;;;;;;8.00;99.90;;;;;;4971053;28;19918;-81
2023/01/04 00:11:21;;;;;;;;;;;8.00;99.90;;;;;;4986145;28;19921;-81
2023/01/04 00:13:47;;;;;;;;;;;8.10;99.90;;;;;;4974270;28;19957;-81
2023/01/04 00:16:14;;;;;;;;;;;8.30;99.90;;;;;;4969315;28;19929;-81
2023/01/04 00:18:40;;;;;;;;;;;8.10;99.90;;;;;;4968094;28;20365;-81
2023/01/04 00:21:07;;;;;;;;;;;8.50;99.90;;;;;;4971020;28;19968;-81
2023/01/04 00:23:32;;;;;;;;;;;8.10;99.90;;;;;;4967632;28;19917;-81
2023/01/04 00:26:05;;;;;;;;;;;8.10;99.90;;;;;;4954749;28;20384;-81
2023/01/04 00:28:31;;;;;;;;;;;8.10;99.90;;;;;;4967822;28;19926;-81
2023/01/04 00:31:00;;;;;;;;;;;8.10;99.90;;;;;;4971985;28;20293;-81
2023/01/04 00:33:26;;;;;;;;;;;8.10;99.90;;;;;;4986489;28;20289;-81
2023/01/04 00:35:51;;;;;;;;;;;8.10;99.90;;;;;;4984100;28;19918;-81
2023/01/04 00:38:17;;;;;;;;;;;8.10;99.90;;;;;;4989562;28;19917;-81
2023/01/04 00:40:42;;;;;;;;;;;8.10;99.90;;;;;;4973706;28;19975;-81
2023/01/04 00:43:08;;;;;;;;;;;8.20;99.90;;;;;;4989842;28;20345;-81
2023/01/04 00:45:33;;;;;;;;;;;8.10;99.90;;;;;;4971557;28;20401;-82
2023/01/04 00:47:59;;;;;;;;;;;8.30;99.90;;;;;;4967188;28;19944;-81
2023/01/04 00:50:24;;;;;;;;;;;8.10;99.90;;;;;;4957673;28;19922;-81
2023/01/04 00:52:50;;;;;;;;;;;8.10;99.90;;;;;;4971402;28;19929;-81
2023/01/04 00:55:15;;;;;;;;;;;8.10;99.90;;;;;;4959634;28;19922;-81
2023/01/04 00:57:41;;;;;;;;;;;8.00;99.90;;;;;;4968654;28;19925;-81
2023/01/04 01:00:07;;;;;;;;;;;8.00;99.90;;;;;;4968183;28;19928;-81
2023/01/04 01:02:32;;;;;;;;;;;8.00;99.90;;;;;;4974007;28;19918;-81
2023/01/04 01:04:58;;;;;;;;;;;7.90;99.90;;;;;;4987004;28;19921;-81
2023/01/04 01:07:23;;;;;;;;;;;7.90;99.90;;;;;;4988091;28;20280;-81
2023/01/04 01:09:49;;;;;;;;;;;8.60;99.90;;;;;;4989240;28;19929;-81
2023/01/04 01:12:14;;;;;;;;;;;7.90;99.90;;;;;;4969893;28;19933;-81
2023/01/04 01:14:40;;;;;;;;;;;7.90;99.90;;;;;;4988843;28;20526;-81
2023/01/04 01:17:05;;;;;;;;;;;7.90;99.90;;;;;;4988731;28;19921;-81
2023/01/04 01:19:31;;;;;;;;;;;7.90;99.90;;;;;;4971403;28;19944;-81
2023/01/04 01:21:56;;;;;;;;;;;8.20;99.90;;;;;;4986828;28;20281;-82
2023/01/04 01:24:22;;;;;;;;;;;8.00;99.90;;;;;;4954212;28;19965;-81
2023/01/04 01:26:47;;;;;;;;;;;8.30;99.90;;;;;;4973891;28;19917;-81
2023/01/04 01:29:13;;;;;;;;;;;7.90;99.90;;;;;;4970515;28;20283;-81
2023/01/04 01:31:39;;;;;;;;;;;8.10;99.90;;;;;;4987322;28;20353;-81
2023/01/04 01:34:04;;;;;;;;;;;8.10;99.90;;;;;;4965786;28;19925;-81
2023/01/04 01:36:30;;;;;;;;;;;7.90;99.90;;;;;;4968427;28;19929;-81
2023/01/04 01:38:56;;;;;;;;;;;7.90;99.90;;;;;;4986305;28;20463;-81
2023/01/04 01:41:28;;;;;;;;;;;8.00;99.90;;;;;;4968653;28;19918;-81
2023/01/04 01:43:57;;;;;;;;;;;8.00;99.90;;;;;;4984527;28;20336;-81
2023/01/04 01:46:35;;;;;;;;;;;7.90;99.90;;;;;;4968367;28;19918;-81
2023/01/04 01:49:08;;;;;;;;;;;8.00;99.90;;;;;;4961449;28;19933;-81
2023/01/04 01:51:34;;;;;;;;;;;8.00;99.90;;;;;;4967080;28;19922;-81
2023/01/04 01:54:03;;;;;;;;;;;7.90;99.90;;;;;;4977410;28;19944;-81
2023/01/04 01:56:29;;;;;;;;;;;7.90;99.90;;;;;;4969048;28;19926;-81
2023/01/04 01:58:57;;;;;;;;;;;8.30;99.90;;;;;;4967044;28;20281;-81
2023/01/04 02:01:23;;;;;;;;;;;7.90;99.90;;;;;;4986642;28;19921;-81
2023/01/04 02:03:48;;;;;;;;;;;7.90;99.90;;;;;;4987940;28;20439;-81
2023/01/04 02:06:17;;;;;;;;;;;7.90;99.90;;;;;;4965684;28;19918;-81
2023/01/04 02:08:43;;;;;;;;;;;7.90;99.90;;;;;;4970055;28;20288;-82
2023/01/04 02:11:09;;;;;;;;;;;8.10;99.90;;;;;;4952848;28;20249;-82
2023/01/04 02:16:30;;;;;;;;;;;7.90;99.90;;;;;;4963282;28;19917;-81
2023/01/04 02:19:00;;;;;;;;;;;7.90;99.90;;;;;;4984386;28;19928;-82
2023/01/04 02:21:36;;;;;;;;;;;7.90;99.90;;;;;;4986074;28;19922;-81
2023/01/04 02:24:11;;;;;;;;;;;7.90;99.90;;;;;;4986015;28;20633;-82
2023/01/04 02:26:49;;;;;;;;;;;8.00;99.90;;;;;;4949568;28;19926;-82
2023/01/04 02:29:22;;;;;;;;;;;8.00;99.90;;;;;;4968900;28;19917;-81
2023/01/04 02:32:00;;;;;;;;;;;8.10;99.90;;;;;;4950346;28;19929;-81
2023/01/04 02:34:28;;;;;;;;;;;8.00;99.90;;;;;;4970903;28;19928;-82
2023/01/04 02:36:57;;;;;;;;;;;8.00;99.90;;;;;;4983738;28;20270;-82
2023/01/04 02:39:37;;;;;;;;;;;8.00;99.90;;;;;;4967955;28;19917;-82
2023/01/04 02:42:12;;;;;;;;;;;8.10;99.90;;;;;;4970115;28;19926;-82
2023/01/04 02:44:56;;;;;;;;;;;8.10;99.90;;;;;;4986775;28;19918;-82
2023/01/04 02:50:32;;;;;;;;;;;8.10;99.90;;;;;;4974227;28;20361;-82
2023/01/04 02:53:07;;;;;;;;;;;8.10;99.90;;;;;;4987734;28;19921;-82
2023/01/04 02:55:40;;;;;;;;;;;8.10;99.90;;;;;;4987895;28;19972;-82
2023/01/04 02:58:16;;;;;;;;;;;8.10;99.90;;;;;;4959030;28;20376;-82
2023/01/04 03:06:33;;;;;;;;;;;8.20;99.90;;;;;;4973172;28;19934;-82
2023/01/04 03:09:06;;;;;;;;;;;8.20;99.90;;;;;;4987127;28;20052;-82
2023/01/04 03:14:23;;;;;;;;;;;8.20;99.90;;;;;;4971876;28;19930;-82
2023/01/04 03:16:49;;;;;;;;;;;8.20;99.90;;;;;;4971740;28;19959;-81
2023/01/04 03:19:50;;;;;;;;;;;8.30;99.90;;;;;;4986039;28;19965;-82
2023/01/04 03:22:02;;;;;;;;;;;8.30;99.90;;;;;;4986711;28;19928;-83
2023/01/04 03:35:56;;;;;;;;;;;8.40;99.90;;;;;;4987560;28;20012;-83
2023/01/04 03:50:11;;;;;;;;;;;8.70;99.90;;;;;;4964873;28;19919;-83
2023/01/04 03:52:38;;;;;;;;;;;8.70;99.90;;;;;;4971118;28;19980;-82
2023/01/04 03:55:05;;;;;;;;;;;8.70;99.90;;;;;;4984570;28;19918;-83
2023/01/04 03:57:31;;;;;;;;;;;8.80;99.90;;;;;;4987134;28;20041;-83
2023/01/04 04:00:00;;;;;;;;;;;8.80;99.90;;;;;;4987322;28;19918;-83
2023/01/04 04:02:29;;;;;;;;;;;8.80;99.90;;;;;;4989695;28;20041;-83
2023/01/04 04:10:24;;;;;;;;;;;9.10;99.90;;;;;;4971440;28;19972;-83
2023/01/04 04:12:51;;;;;;;;;;;9.00;99.90;;;;;;4979434;28;19934;-83
2023/01/04 04:15:16;;;;;;;;;;;9.00;99.90;;;;;;4988808;28;19922;-83
2023/01/04 04:17:42;;;;;;;;;;;9.10;99.90;;;;;;4973632;28;19922;-83
2023/01/04 04:20:08;;;;;;;;;;;9.10;99.90;;;;;;4973340;28;20364;-83
2023/01/04 04:22:33;;;;;;;;;;;9.20;99.90;;;;;;4981074;28;19924;-83
2023/01/04 04:24:59;;;;;;;;;;;9.20;99.90;;;;;;4971674;28;19918;-83
2023/01/04 04:27:24;;;;;;;;;;;9.30;99.90;;;;;;4972944;28;19933;-83
2023/01/04 04:29:50;;;;;;;;;;;9.30;99.90;;;;;;4961473;28;19921;-83
2023/01/04 04:32:15;;;;;;;;;;;9.30;99.90;;;;;;4986995;28;19965;-83
2023/01/04 04:34:41;;;;;;;;;;;9.50;99.90;;;;;;4972988;28;19933;-83
2023/01/04 04:37:06;;;;;;;;;;;9.90;99.90;;;;;;4958587;28;19918;-84
2023/01/04 04:39:32;;;;;;;;;;;9.40;99.90;;;;;;4972490;28;19999;-84
2023/01/04 04:41:57;;;;;;;;;;;9.50;99.90;;;;;;4982025;28;19972;-83
2023/01/04 04:44:23;;;;;;;;;;;9.50;99.90;;;;;;4966778;28;19937;-83
2023/01/04 04:46:49;;;;;;;;;;;9.50;99.90;;;;;;4981863;28;19976;-84
2023/01/04 04:49:15;;;;;;;;;;;9.50;99.90;;;;;;4969985;28;19918;-84
2023/01/04 04:51:41;;;;;;;;;;;9.50;99.90;;;;;;4956779;28;20311;-83
2023/01/04 04:54:07;;;;;;;;;;;10.30;99.90;;;;;;4963889;28;19922;-84
2023/01/04 04:56:35;;;;;;;;;;;9.60;99.90;;;;;;4977655;28;19918;-83
2023/01/04 04:59:01;;;;;;;;;;;9.60;99.90;;;;;;4967430;28;20000;-83
2023/01/04 05:01:26;;;;;;;;;;;9.70;99.90;;;;;;4968757;28;20335;-83
2023/01/04 05:03:52;;;;;;;;;;;9.70;99.90;;;;;;4968974;28;19917;-83
2023/01/04 05:06:18;;;;;;;;;;;10.40;99.90;;;;;;4969948;28;19917;-83
2023/01/04 05:08:43;;;;;;;;;;;9.80;99.90;;;;;;4969937;28;19930;-83
2023/01/04 05:11:09;;;;;;;;;;;9.90;99.90;;;;;;4969734;28;19929;-84
2023/01/04 05:13:57;;;;;;;;;;;9.80;99.90;;;;;;4967140;28;20675;-83
2023/01/04 05:16:27;;;;;;;;;;;9.80;99.90;;;;;;4985697;28;19917;-84
2023/01/04 05:18:52;;;;;;;;;;;10.40;99.90;;;;;;4981781;28;19928;-83
2023/01/04 05:21:18;;;;;;;;;;;9.90;99.90;;;;;;4987466;28;19924;-84
2023/01/04 05:23:43;;;;;;;;;;;9.90;99.90;;;;;;4969848;28;19961;-84
2023/01/04 05:26:09;;;;;;;;;;;10.00;99.90;;;;;;4978259;28;20343;-84
2023/01/04 05:28:34;;;;;;;;;;;10.30;99.90;;;;;;4984827;28;19977;-84
2023/01/04 05:31:00;;;;;;;;;;;10.00;99.90;;;;;;4972431;28;20405;-84
2023/01/04 05:33:26;;;;;;;;;;;10.70;99.90;;;;;;4964649;28;20000;-84
2023/01/04 05:35:52;;;;;;;;;;;10.10;99.90;;;;;;4963420;28;19918;-84
2023/01/04 05:38:18;;;;;;;;;;;10.10;99.90;;;;;;4969900;28;20084;-83
2023/01/04 05:40:44;;;;;;;;;;;10.10;99.90;;;;;;4956898;28;19921;-84
2023/01/04 05:43:11;;;;;;;;;;;10.00;99.90;;;;;;4987406;28;19984;-84
2023/01/04 05:45:37;;;;;;;;;;;10.20;99.90;;;;;;4962561;28;19925;-84
2023/01/04 05:48:03;;;;;;;;;;;10.20;99.90;;;;;;4986345;28;19922;-84
2023/01/04 05:50:28;;;;;;;;;;;10.10;99.90;;;;;;4985281;28;20328;-84
2023/01/04 05:52:54;;;;;;;;;;;10.20;99.90;;;;;;4969637;28;19933;-84
2023/01/04 05:55:19;;;;;;;;;;;10.20;99.90;;;;;;4988672;28;19921;-84
2023/01/04 05:57:45;;;;;;;;;;;10.20;99.90;;;;;;4988069;28;19921;-84
2023/01/04 06:00:11;;;;;;;;;;;10.20;99.90;;;;;;4966298;28;19926;-84
2023/01/04 06:02:37;;;;;;;;;;;10.20;99.90;;;;;;4959510;28;19928;-84
2023/01/04 06:05:02;;;;;;;;;;;10.20;99.90;;;;;;4969971;28;20008;-84
2023/01/04 06:07:28;;;;;;;;;;;10.20;99.90;;;;;;4986522;28;20369;-84
2023/01/04 06:09:54;;;;;;;;;;;10.20;99.90;;;;;;4987512;28;20368;-84
2023/01/04 06:12:20;;;;;;;;;;;10.30;99.90;;;;;;4982163;28;19929;-84
2023/01/04 06:14:45;;;;;;;;;;;10.30;99.90;;;;;;4951252;28;20008;-84
2023/01/04 06:17:11;;;;;;;;;;;10.30;99.90;;;;;;4969884;28;19926;-85
2023/01/04 06:19:37;;;;;;;;;;;10.30;99.90;;;;;;4969739;28;19918;-84
2023/01/04 06:22:31;;;;;;;;;;;10.50;99.90;;;;;;4982832;28;20415;-85
2023/01/04 06:24:57;;;;;;;;;;;10.30;99.90;;;;;;4978049;28;19981;-84
2023/01/04 06:27:23;;;;;;;;;;;10.20;99.90;;;;;;4970995;28;20407;-85
2023/01/04 06:29:48;;;;;;;;;;;10.30;99.90;;;;;;4970269;28;19972;-84
2023/01/04 06:32:14;;;;;;;;;;;10.30;99.90;;;;;;4970739;28;19918;-85
2023/01/04 06:34:39;;;;;;;;;;;10.30;99.90;;;;;;4986037;28;19929;-84
2023/01/04 06:37:05;;;;;;;;;;;10.30;99.90;;;;;;4969455;28;19921;-85
2023/01/04 06:39:31;;;;;;;;;;;10.30;99.90;;;;;;4970279;28;20235;-84
2023/01/04 06:41:56;;;;;;;;;;;10.40;99.90;;;;;;4967325;28;19922;-85
2023/01/04 06:44:22;;;;;;;;;;;10.50;99.90;;;;;;4969586;28;19972;-85
2023/01/04 06:46:47;;;;;;;;;;;10.40;99.90;;;;;;4965878;28;19929;-85
2023/01/04 06:49:13;;;;;;;;;;;10.40;99.90;;;;;;4965539;28;20285;-84
2023/01/04 06:51:38;;;;;;;;;;;10.40;99.90;;;;;;4957206;28;19921;-85
2023/01/04 06:54:04;;;;;;;;;;;10.40;99.90;;;;;;4962549;28;19918;-84
2023/01/04 06:56:31;;;;;;;;;;;10.40;99.90;;;;;;4965665;28;19922;-85
2023/01/04 06:58:57;;;;;;;;;;;10.40;99.90;;;;;;4950497;28;19922;-85
2023/01/04 07:01:22;;;;;;;;;;;10.40;99.90;;;;;;4965433;28;20012;-85
2023/01/04 07:03:48;;;;;;;;;;;10.50;99.90;;;;;;4969909;28;19973;-85
2023/01/04 07:06:13;;;;;;;;;;;10.50;99.90;;;;;;4970296;28;20278;-84
2023/01/04 07:08:39;;;;;;;;;;;10.50;99.90;;;;;;4969610;28;20039;-84
2023/01/04 07:11:04;;;;;;;;;;;10.70;99.90;;;;;;4965691;28;19922;-84
2023/01/04 07:13:30;;;;;;;;;;;10.50;99.90;;;;;;4966446;28;19918;-84
2023/01/04 07:15:55;;;;;;;;;;;10.50;99.90;;;;;;4987956;28;20001;-84
2023/01/04 07:18:21;;;;;;;;;;;10.70;99.90;;;;;;4970305;28;20408;-85
2023/01/04 07:20:47;;;;;;;;;;;10.50;99.90;;;;;;4972300;28;19937;-84
2023/01/04 07:23:12;;;;;;;;;;;10.50;99.90;;;;;;4967339;28;19964;-84
2023/01/04 07:25:38;;;;;;;;;;;10.50;99.90;;;;;;4966242;28;19930;-84
2023/01/04 07:28:04;;;;;;;;;;;10.50;99.90;;;;;;4978587;28;19921;-83
2023/01/04 07:30:30;;;;;;;;;;;10.50;99.90;;;;;;4969054;28;20432;-84
2023/01/04 07:32:55;;;;;;;;;;;10.50;99.90;;;;;;4987266;28;19952;-84
2023/01/04 07:35:21;;;;;;;;;;;10.90;99.90;;;;;;4987276;28;19921;-84
2023/01/04 07:37:47;;;;;;;;;;;11.40;99.90;;;;;;4988146;28;19926;-84
2023/01/04 07:40:13;;;;;;;;;;;10.50;99.90;;;;;;4989098;28;20304;-85
2023/01/04 07:42:38;;;;;;;;;;;10.70;99.90;;;;;;4990236;28;19918;-86
2023/01/04 07:45:04;;;;;;;;;;;10.60;99.90;;;;;;4972419;28;19933;-87
2023/01/04 07:47:30;;;;;;;;;;;10.60;99.90;;;;;;4971907;28;20381;-87
2023/01/04 07:49:56;;;;;;;;;;;10.60;99.90;;;;;;4966813;28;19968;-88
2023/01/04 07:52:21;;;;;;;;;;;10.60;99.90;;;;;;4972733;28;19932;-90
2023/01/04 07:54:47;;;;;;;;;;;11.20;99.90;;;;;;4991308;28;19979;-87
2023/01/04 07:57:12;;;;;;;;;;;10.60;99.90;;;;;;4989390;28;19964;-85
2023/01/04 07:59:38;;;;;;;;;;;10.60;99.90;;;;;;4970704;28;19918;-88
2023/01/04 08:02:04;;;;;;;;;;;10.60;99.90;;;;;;4989359;28;19981;-87
2023/01/04 08:04:29;;;;;;;;;;;10.60;99.90;;;;;;4978511;28;19918;-86
2023/01/04 08:06:55;;;;;;;;;;;10.60;99.90;;;;;;5018715;23;19925;-84
2023/01/04 08:09:20;;;;;;;;;;;11.40;99.90;;;;;;4957974;28;19929;-89
2023/01/04 08:11:46;;;;;;;;;;;10.60;99.90;;;;;;4988487;28;19925;-89
2023/01/04 08:14:12;;;;;;;;;;;11.00;99.90;;;;;;4972806;28;19929;-89
2023/01/04 08:16:38;;;;;;;;;;;11.00;99.90;;;;;;4972720;28;19975;-90
2023/01/04 08:19:06;;;;;;;;;;;10.60;99.90;;;;;;4970419;28;19922;-88
2023/01/04 08:21:33;;;;;;;;;;;11.40;99.90;;;;;;4972265;28;20399;-89
2023/01/04 08:23:59;;;;;;;;;;;11.10;99.90;;;;;;4969123;28;19925;-89
2023/01/04 08:26:24;;;;;;;;;;;10.70;99.90;;;;;;4973204;28;19924;-87
2023/01/04 08:28:50;;;;;;;;;;;10.80;99.90;;;;;;4971735;28;19922;-88
2023/01/04 08:31:20;;;;;;;;;;;10.70;99.90;;;;;;4989000;28;19958;-88
2023/01/04 08:33:46;;;;;;;;;;;10.70;99.90;;;;;;4969888;28;19933;-88
2023/01/04 08:36:16;;;;;;;;;;;10.70;99.90;;;;;;4966693;28;19924;-88
2023/01/04 08:38:41;;;;;;;;;;;10.70;99.90;;;;;;4972660;28;19978;-91
2023/01/04 08:41:10;;;;;;;;;;;11.20;99.90;;;;;;4987515;28;20379;-89
2023/01/04 08:43:35;;;;;;;;;;;10.70;99.90;;;;;;4973108;28;19926;-88
2023/01/04 08:46:02;;;;;;;;;;;10.70;99.90;;;;;;4984454;28;19928;-88
2023/01/04 08:48:28;;;;;;;;;;;11.40;99.90;;;;;;4966296;28;19922;-91
2023/01/04 08:50:56;;;;;;;;;;;10.70;99.90;;;;;;4988784;28;19980;-89
2023/01/04 08:53:22;;;;;;;;;;;10.70;99.90;;;;;;4971318;28;20369;-87
2023/01/04 08:55:48;;;;;;;;;;;10.70;99.90;;;;;;4988798;28;19924;-89
2023/01/04 08:58:14;;;;;;;;;;;10.80;99.90;;;;;;4955913;28;19921;-87
2023/01/04 09:00:39;;;;;;;;;;;10.80;99.90;;;;;;4986365;28;19925;-88
2023/01/04 09:03:05;;;;;;;;;;;10.80;99.90;;;;;;4968462;28;19922;-89
2023/01/04 09:05:30;;;;;;;;;;;10.80;99.90;;;;;;4968892;28;19929;-89
2023/01/04 09:07:57;;;;;;;;;;;10.80;99.90;;;;;;4985034;28;19926;-88
2023/01/04 09:10:26;;;;;;;;;;;10.80;99.90;;;;;;4984092;28;19921;-88
2023/01/04 09:12:52;;;;;;;;;;;10.80;99.90;;;;;;4968954;28;20336;-87
2023/01/04 09:15:18;;;;;;;;;;;11.00;99.90;;;;;;4966065;28;20383;-87
2023/01/04 09:17:43;;;;;;;;;;;11.20;99.90;;;;;;4965620;28;20257;-86
2023/01/04 09:20:09;;;;;;;;;;;10.80;99.90;;;;;;4964369;28;19977;-85
2023/01/04 09:22:34;;;;;;;;;;;10.80;99.90;;;;;;4966178;28;20292;-86
2023/01/04 09:25:00;;;;;;;;;;;10.90;99.90;;;;;;4967840;28;19924;-86
2023/01/04 09:27:25;;;;;;;;;;;10.90;99.90;;;;;;4982707;28;19929;-85
2023/01/04 09:29:51;;;;;;;;;;;10.90;99.90;;;;;;4969135;28;19953;-86
2023/01/04 09:32:16;;;;;;;;;;;10.90;99.90;;;;;;4984456;28;19925;-86
2023/01/04 09:34:42;;;;;;;;;;;10.90;99.90;;;;;;4983120;28;19970;-86
2023/01/04 09:37:07;;;;;;;;;;;10.90;99.90;;;;;;4963924;28;19918;-87
2023/01/04 09:39:33;;;;;;;;;;;10.90;99.90;;;;;;4984040;28;19918;-88
2023/01/04 09:42:02;;;;;;;;;;;11.20;99.90;;;;;;4965627;28;20410;-87
2023/01/04 09:44:34;;;;;;;;;;;11.00;99.90;;;;;;4979163;28;19933;-88
2023/01/04 09:47:07;;;;;;;;;;;11.00;99.90;;;;;;4952368;28;19980;-88
2023/01/04 09:49:49;;;;;;;;;;;11.00;99.90;;;;;;4967751;28;20017;-89
2023/01/04 09:52:18;;;;;;;;;;;11.00;99.90;;;;;;4981459;28;19918;-91
2023/01/04 09:54:47;;;;;;;;;;;11.10;99.90;;;;;;4966989;28;20012;-87
2023/01/04 09:57:18;;;;;;;;;;;11.20;99.90;;;;;;4983933;28;20288;-85
2023/01/04 09:59:45;;;;;;;;;;;11.10;99.90;;;;;;4988537;28;20029;-85
2023/01/04 10:02:14;;;;;;;;;;;11.10;99.90;;;;;;4986772;28;19917;-87
2023/01/04 10:04:47;;;;;;;;;;;11.10;99.90;;;;;;4985715;28;19917;-87
2023/01/04 10:07:15;;;;;;;;;;;11.20;99.90;;;;;;4970511;28;20352;-87
2023/01/04 10:09:41;;;;;;;;;;;11.20;99.90;;;;;;4970870;28;19928;-87
2023/01/04 10:12:24;;;;;;;;;;;11.50;99.90;;;;;;4966798;28;19921;-87
2023/01/04 10:14:56;;;;;;;;;;;11.30;99.90;;;;;;4984296;28;19932;-87
2023/01/04 10:17:40;;;;;;;;;;;11.30;99.90;;;;;;4982151;28;19926;-87
2023/01/04 10:20:11;;;;;;;;;;;11.30;99.90;;;;;;4958593;28;19976;-88
2023/01/04 10:22:42;;;;;;;;;;;11.30;99.90;;;;;;4960371;28;19918;-90
2023/01/04 10:25:14;;;;;;;;;;;11.30;99.90;;;;;;4961090;28;19940;-90
2023/01/04 10:27:58;;;;;;;;;;;11.40;99.90;;;;;;4979258;28;19932;-86
2023/01/04 10:30:24;;;;;;;;;;;11.40;99.90;;;;;;4979509;28;19918;-87
2023/01/04 10:32:57;;;;;;;;;;;11.40;99.90;;;;;;4969295;28;20296;-89
2023/01/04 10:35:24;;;;;;;;;;;12.10;99.90;;;;;;4968935;28;20001;-89
2023/01/04 10:38:00;;;;;;;;;;;11.40;99.90;;;;;;4987948;28;20278;-89
2023/01/04 10:40:32;;;;;;;;;;;11.50;99.90;;;;;;4986757;28;20052;-89
2023/01/04 10:42:58;;;;;;;;;;;11.50;99.90;;;;;;4968388;28;20364;-88
2023/01/04 10:45:32;;;;;;;;;;;12.10;99.90;;;;;;4961754;28;19968;-89
2023/01/04 10:48:12;;;;;;;;;;;11.50;99.90;;;;;;4987997;28;20020;-87
2023/01/04 10:50:57;;;;;;;;;;;11.50;99.90;;;;;;4982678;28;19925;-87
2023/01/04 10:53:39;;;;;;;;;;;11.50;99.90;;;;;;4966793;28;19929;-89
2023/01/04 10:56:17;;;;;;;;;;;11.50;99.90;;;;;;4968159;28;19925;-90
2023/01/04 10:58:45;;;;;;;;;;;11.50;99.90;;;;;;4953830;28;19937;-90
2023/01/04 11:01:13;;;;;;;;;;;11.50;99.90;;;;;;4972180;23;20584;-89
2023/01/04 11:03:51;;;;;;;;;;;11.60;99.90;;;;;;4968086;28;20028;-90
2023/01/04 11:06:23;;;;;;;;;;;11.60;99.90;;;;;;4951537;28;20088;-89
2023/01/04 11:08:55;;;;;;;;;;;11.60;99.90;;;;;;4963327;28;20377;-88
2023/01/04 11:11:26;;;;;;;;;;;12.30;99.90;;;;;;4954504;28;20440;-90
2023/01/04 11:13:52;;;;;;;;;;;11.60;99.90;;;;;;4938135;28;19929;-90
2023/01/04 11:16:18;;;;;;;;;;;11.70;99.90;;;;;;4973333;28;19926;-90
2023/01/04 11:18:44;;;;;;;;;;;11.70;99.90;;;;;;4969122;28;19955;-90
2023/01/04 11:21:11;;;;;;;;;;;11.70;99.90;;;;;;4968784;28;19925;-89
2023/01/04 11:23:37;;;;;;;;;;;11.80;99.90;;;;;;4972438;28;20072;-88
2023/01/04 11:26:10;;;;;;;;;;;11.80;99.90;;;;;;4952593;28;20010;-91
2023/01/04 11:28:38;;;;;;;;;;;11.80;99.90;;;;;;4935061;28;19974;-89
2023/01/04 11:31:08;;;;;;;;;;;12.00;99.90;;;;;;4965601;28;20400;-91
2023/01/04 11:33:51;;;;;;;;;;;11.70;99.90;;;;;;4954478;28;20285;-90
2023/01/04 11:36:35;;;;;;;;;;;11.80;99.90;;;;;;4966184;28;20377;-89
2023/01/04 11:39:01;;;;;;;;;;;11.80;99.90;;;;;;4955450;28;20464;-88
2023/01/04 11:41:27;;;;;;;;;;;12.00;99.90;;;;;;4952404;28;19972;-88
2023/01/04 11:44:00;;;;;;;;;;;11.80;99.90;;;;;;4971653;28;19969;-87
2023/01/04 11:46:26;;;;;;;;;;;11.90;99.90;;;;;;4970811;28;19968;-86
2023/01/04 11:48:52;;;;;;;;;;;11.90;99.90;;;;;;4952725;28;20348;-88
2023/01/04 11:51:41;;;;;;;;;;;11.90;99.90;;;;;;4969534;28;19926;-88
2023/01/04 11:54:12;;;;;;;;;;;11.90;99.90;;;;;;4966461;28;20425;-87
2023/01/04 11:56:38;;;;;;;;;;;12.00;99.90;;;;;;4953149;28;19924;-88
2023/01/04 11:59:11;;;;;;;;;;;12.80;99.90;;;;;;4970743;28;20009;-87
2023/01/04 12:01:38;;;;;;;;;;;12.00;99.90;;;;;;4970839;28;20021;-85
2023/01/04 12:04:09;;;;;;;;;;;12.00;99.90;;;;;;4935076;28;19926;-88
2023/01/04 12:06:41;;;;;;;;;;;12.00;99.90;;;;;;4953465;28;19923;-88
2023/01/04 12:09:14;;;;;;;;;;;12.00;99.90;;;;;;4956525;28;19925;-88
2023/01/04 12:11:45;;;;;;;;;;;11.90;99.90;;;;;;4949393;28;20396;-87
2023/01/04 12:14:19;;;;;;;;;;;11.90;99.90;;;;;;4955706;28;19922;-88
2023/01/04 12:16:45;;;;;;;;;;;11.90;99.90;;;;;;4949384;28;19919;-88
2023/01/04 12:19:14;;;;;;;;;;;12.00;99.90;;;;;;4964975;28;20278;-87
2023/01/04 12:21:42;;;;;;;;;;;12.00;99.90;;;;;;4953308;28;19926;-88
2023/01/04 12:24:07;;;;;;;;;;;12.00;99.90;;;;;;4945510;28;19918;-87
2023/01/04 12:26:39;;;;;;;;;;;12.00;99.90;;;;;;4957531;28;19925;-88
2023/01/04 12:29:21;;;;;;;;;;;12.00;99.90;;;;;;4938890;28;19969;-88
2023/01/04 12:31:47;;;;;;;;;;;12.00;99.90;;;;;;4969112;28;20316;-88
2023/01/04 12:34:12;;;;;;;;;;;12.00;99.90;;;;;;4959088;28;20403;-87
2023/01/04 12:36:38;;;;;;;;;;;12.00;99.90;;;;;;4956027;28;19922;-87
2023/01/04 12:39:27;;;;;;;;;;;12.00;99.90;;;;;;4950135;28;19969;-86
2023/01/04 12:41:59;;;;;;;;;;;12.00;99.90;;;;;;4938916;28;19919;-88
2023/01/04 12:44:45;;;;;;;;;;;12.00;99.90;;;;;;4980417;28;19922;-87
2023/01/04 12:50:03;;;;;;;;;;;12.00;99.90;;;;;;4957230;28;19922;-88
2023/01/04 12:52:29;;;;;;;;;;;12.00;99.90;;;;;;4970947;28;19937;-87
2023/01/04 12:54:59;;;;;;;;;;;11.90;99.90;;;;;;4968582;28;19918;-87
2023/01/04 12:57:37;;;;;;;;;;;12.00;99.90;;;;;;4942117;28;19965;-88
2023/01/04 13:00:03;;;;;;;;;;;12.00;99.90;;;;;;4970400;28;19929;-89
2023/01/04 13:02:29;;;;;;;;;;;12.00;99.90;;;;;;4956794;28;20301;-89
2023/01/04 13:04:59;;;;;;;;;;;11.90;99.90;;;;;;4948987;28;19918;-87
2023/01/04 13:07:28;;;;;;;;;;;12.00;99.90;;;;;;4954756;28;19917;-88
2023/01/04 13:09:59;;;;;;;;;;;11.90;99.90;;;;;;4969751;28;19964;-88
2023/01/04 13:12:25;;;;;;;;;;;12.00;99.90;;;;;;4956113;28;19949;-87
2023/01/04 13:14:53;;;;;;;;;;;12.00;99.90;;;;;;4945729;28;19926;-88
2023/01/04 13:17:24;;;;;;;;;;;11.90;99.90;;;;;;4939642;28;20431;-88
2023/01/04 13:19:49;;;;;;;;;;;11.90;99.90;;;;;;4953600;28;19965;-88
2023/01/04 13:22:19;;;;;;;;;;;11.90;99.90;;;;;;4954636;28;20348;-89
2023/01/04 13:24:46;;;;;;;;;;;12.20;99.90;;;;;;4952213;28;19922;-90
2023/01/04 13:27:17;;;;;;;;;;;12.10;99.90;;;;;;4953017;28;20389;-90
2023/01/04 13:29:43;;;;;;;;;;;12.00;99.90;;;;;;4955972;28;19933;-90
2023/01/04 13:32:10;;;;;;;;;;;11.90;99.90;;;;;;4971480;28;19922;-89
2023/01/04 13:34:42;;;;;;;;;;;12.30;99.90;;;;;;4951751;28;19922;-89
2023/01/04 13:37:10;;;;;;;;;;;11.90;99.90;;;;;;4967870;28;19976;-90
2023/01/04 13:39:40;;;;;;;;;;;11.90;99.90;;;;;;4951721;28;20058;-89
2023/01/04 13:42:11;;;;;;;;;;;11.90;99.90;;;;;;4954211;28;19949;-90
2023/01/04 13:44:56;;;;;;;;;;;11.90;99.90;;;;;;4935266;28;19918;-88
2023/01/04 13:47:21;;;;;;;;;;;12.00;99.90;;;;;;4953029;28;19925;-89
2023/01/04 13:49:48;;;;;;;;;;;12.00;99.90;;;;;;4949678;28;20289;-90
2023/01/04 13:52:27;;;;;;;;;;;12.00;99.90;;;;;;4972614;28;19959;-89
2023/01/04 13:55:11;;;;;;;;;;;12.00;99.90;;;;;;4940424;28;19945;-88
2023/01/04 13:57:50;;;;;;;;;;;12.00;99.90;;;;;;4956529;28;20420;-90
2023/01/04 14:00:16;;;;;;;;;;;12.00;99.90;;;;;;4968579;28;19981;-88
2023/01/04 14:02:42;;;;;;;;;;;12.00;99.90;;;;;;4955474;28;19972;-89
2023/01/04 14:05:13;;;;;;;;;;;12.00;99.90;;;;;;4973010;28;19918;-87
2023/01/04 14:07:41;;;;;;;;;;;11.90;99.90;;;;;;4964223;28;20246;-89
2023/01/04 14:10:15;;;;;;;;;;;12.70;99.90;;;;;;4948752;28;19930;-89
2023/01/04 14:12:42;;;;;;;;;;;11.90;99.90;;;;;;4970320;28;20373;-87
2023/01/04 14:15:14;;;;;;;;;;;12.10;99.90;;;;;;4971390;28;20316;-89
2023/01/04 14:17:48;;;;;;;;;;;11.90;99.90;;;;;;4966701;28;19925;-85
2023/01/04 14:20:23;;;;;;;;;;;11.90;99.90;;;;;;4953075;28;19922;-88
2023/01/04 14:22:48;;;;;;;;;;;11.90;99.90;;;;;;4970166;28;20373;-87
2023/01/04 14:25:29;;;;;;;;;;;11.90;99.90;;;;;;4935090;28;19969;-85
2023/01/04 14:28:13;;;;;;;;;;;11.90;99.90;;;;;;4966509;28;20033;-86
2023/01/04 14:30:39;;;;;;;;;;;11.90;99.90;;;;;;4945870;28;19918;-86
2023/01/04 14:33:16;;;;;;;;;;;11.90;99.90;;;;;;4964905;28;19929;-86
2023/01/04 14:35:41;;;;;;;;;;;11.90;99.90;;;;;;4970761;28;19926;-86
2023/01/04 14:38:17;;;;;;;;;;;12.10;99.90;;;;;;4969853;28;20288;-85
2023/01/04 14:40:43;;;;;;;;;;;11.90;99.90;;;;;;4936985;28;19928;-87
2023/01/04 14:43:27;;;;;;;;;;;11.90;99.90;;;;;;4958462;28;20033;-89
2023/01/04 14:45:53;;;;;;;;;;;11.80;99.90;;;;;;4968971;28;19926;-87
2023/01/04 14:48:18;;;;;;;;;;;11.90;99.90;;;;;;4966092;28;20768;-87
2023/01/04 14:50:43;;;;;;;;;;;11.70;99.90;;;;;;4969720;28;19918;-87
2023/01/04 14:53:09;;;;;;;;;;;11.80;99.90;;;;;;4953532;28;19926;-88
2023/01/04 14:55:35;;;;;;;;;;;11.80;99.90;;;;;;4973043;28;19926;-88
2023/01/04 14:58:03;;;;;;;;;;;11.70;99.90;;;;;;4966410;28;19969;-86
2023/01/04 15:00:29;;;;;;;;;;;11.80;99.90;;;;;;4966025;28;19991;-87
2023/01/04 15:02:54;;;;;;;;;;;11.70;99.90;;;;;;4950016;29;19918;-88
2023/01/04 15:05:20;;;;;;;;;;;11.70;99.90;;;;;;4964397;28;19942;-87
2023/01/04 15:07:45;;;;;;;;;;;11.60;99.90;;;;;;4965479;28;20058;-88
2023/01/04 15:10:19;;;;;;;;;;;11.70;99.90;;;;;;4950015;28;20440;-88
2023/01/04 15:12:45;;;;;;;;;;;11.50;99.90;;;;;;4952629;28;20440;-87
2023/01/04 15:15:11;;;;;;;;;;;11.60;99.90;;;;;;4964853;28;19957;-87